Time;durP1;ratioP1;P1;durP2;ratioP2;P2;SDS_P1;SDS_P2;PMS_P1;PMS_P2;Temp;Humidity;BMP_temperature;BMP_pressure;BME280_temperature;BME280_humidity;BME280_pressure;Samples;Min_cycle;Max_cycle;Signal;HPM_P1;HPM_P2
2023/04/29 00:01:20;;;;;;;5.03;4.53;;;10.70;99.90;;;;;;5071150;28;20881;-52
2023/04/29 00:03:47;;;;;;;5.10;4.70;;;10.80;99.90;;;;;;5070957;28;20483;-52
2023/04/29 00:06:13;;;;;;;4.67;4.17;;;10.80;99.90;;;;;;5071244;28;20534;-52
2023/04/29 00:08:40;;;;;;;3.20;2.70;;;10.70;99.90;;;;;;5070694;28;20894;-52
2023/04/29 00:11:07;;;;;;;4.50;3.30;;;10.80;99.90;;;;;;5071023;28;21037;-52
2023/04/29 00:13:34;;;;;;;3.27;2.97;;;10.80;99.90;;;;;;5070608;28;21148;-53
2023/04/29 00:16:01;;;;;;;5.10;3.47;;;10.90;99.90;;;;;;5071222;28;20475;-52
2023/04/29 00:18:31;;;;;;;3.07;2.67;;;10.90;99.90;;;;;;5070491;28;20448;-53
2023/04/29 00:20:58;;;;;;;4.07;3.40;;;10.80;99.90;;;;;;5071161;28;20453;-52
2023/04/29 00:23:25;;;;;;;7.23;2.43;;;10.80;99.90;;;;;;5070798;28;20502;-55
2023/04/29 00:25:52;;;;;;;3.83;2.33;;;10.80;99.90;;;;;;5070957;28;20471;-53
2023/04/29 00:28:19;;;;;;;2.60;2.10;;;10.70;99.90;;;;;;5070541;28;20510;-53
2023/04/29 00:30:46;;;;;;;4.93;3.30;;;10.70;99.90;;;;;;5070893;28;20821;-52
2023/04/29 00:33:13;;;;;;;7.60;4.13;;;10.70;99.90;;;;;;5070734;28;20491;-53
2023/04/29 00:35:41;;;;;;;5.87;4.53;;;10.70;99.90;;;;;;5070772;28;20527;-52
2023/04/29 00:38:08;;;;;;;5.37;4.63;;;10.80;99.90;;;;;;5070478;28;20445;-52
2023/04/29 00:40:35;;;;;;;5.77;5.27;;;10.70;99.90;;;;;;5070441;28;20525;-52
2023/04/29 00:43:02;;;;;;;5.83;5.33;;;10.80;99.90;;;;;;5070702;28;20545;-52
2023/04/29 00:45:29;;;;;;;6.10;4.77;;;10.80;99.90;;;;;;5071419;28;20480;-52
2023/04/29 00:47:56;;;;;;;4.10;3.33;;;10.80;99.90;;;;;;5073806;28;20532;-54
2023/04/29 00:50:23;;;;;;;3.50;3.20;;;10.40;99.90;;;;;;5074547;28;20530;-52
2023/04/29 00:52:52;;;;;;;6.93;4.20;;;10.30;99.90;;;;;;5073973;28;20979;-54
2023/04/29 00:55:19;;;;;;;5.97;4.90;;;10.20;99.90;;;;;;5074118;28;20525;-52
2023/04/29 00:57:48;;;;;;;6.67;6.00;;;10.20;99.90;;;;;;5073851;28;20468;-53
2023/04/29 01:00:16;;;;;;;5.93;5.43;;;10.30;99.90;;;;;;5074012;28;20813;-52
2023/04/29 01:02:43;;;;;;;6.00;5.30;;;10.40;99.90;;;;;;5073876;28;20997;-54
2023/04/29 01:05:10;;;;;;;5.30;4.80;;;10.60;99.90;;;;;;5073894;28;20488;-52
2023/04/29 01:07:45;;;;;;;3.87;3.50;;;10.60;99.90;;;;;;5073542;28;20562;-52
2023/04/29 01:10:16;;;;;;;4.80;3.47;;;10.70;99.90;;;;;;5073758;28;20477;-52
2023/04/29 01:12:46;;;;;;;5.00;4.50;;;10.70;99.90;;;;;;5074067;28;20505;-52
2023/04/29 01:15:21;;;;;;;6.00;4.80;;;10.60;99.90;;;;;;5073220;28;20450;-54
2023/04/29 01:17:55;;;;;;;4.93;4.53;;;10.60;99.90;;;;;;5073891;28;20441;-52
2023/04/29 01:20:23;;;;;;;5.10;4.60;;;10.60;99.90;;;;;;5074101;28;20535;-52
2023/04/29 01:22:50;;;;;;;5.50;4.80;;;10.60;99.90;;;;;;5073308;28;20471;-53
2023/04/29 01:25:18;;;;;;;4.43;4.03;;;10.60;99.90;;;;;;5073502;28;20475;-53
2023/04/29 01:27:52;;;;;;;4.67;3.87;;;10.60;99.90;;;;;;5073299;28;20515;-52
2023/04/29 01:30:31;;;;;;;5.07;4.60;;;10.50;99.90;;;;;;5073702;28;20454;-52
2023/04/29 01:33:04;;;;;;;3.83;3.53;;;10.60;99.90;;;;;;5073874;28;20501;-53
2023/04/29 01:35:45;;;;;;;5.87;3.07;;;10.60;99.90;;;;;;5073738;28;20972;-52
2023/04/29 01:38:22;;;;;;;3.30;3.00;;;10.60;99.90;;;;;;5073462;28;20934;-52
2023/04/29 01:41:01;;;;;;;3.53;2.73;;;10.60;99.90;;;;;;5073489;28;20443;-52
2023/04/29 01:43:32;;;;;;;2.63;2.43;;;10.60;99.90;;;;;;5073377;28;20470;-52
2023/04/29 01:46:00;;;;;;;2.10;1.90;;;10.70;99.90;;;;;;5073052;28;20788;-52
2023/04/29 01:48:28;;;;;;;3.13;1.33;;;10.70;99.90;;;;;;5072570;28;20844;-52
2023/04/29 01:50:55;;;;;;;2.13;1.00;;;10.60;99.90;;;;;;5073414;28;20562;-52
2023/04/29 01:53:22;;;;;;;2.37;1.30;;;10.70;99.90;;;;;;5072929;28;20479;-52
2023/04/29 01:55:50;;;;;;;1.97;1.77;;;10.60;99.90;;;;;;5072425;28;20876;-54
2023/04/29 01:58:17;;;;;;;3.50;3.20;;;10.60;99.90;;;;;;5073107;28;20473;-53
2023/04/29 02:00:44;;;;;;;3.97;3.47;;;10.50;99.90;;;;;;5073056;28;20480;-52
2023/04/29 02:03:11;;;;;;;3.53;2.70;;;10.60;99.90;;;;;;5072852;28;20549;-52
2023/04/29 02:05:38;;;;;;;2.13;1.40;;;10.50;99.90;;;;;;5072963;28;20437;-52
2023/04/29 02:08:06;;;;;;;2.00;1.63;;;10.40;99.90;;;;;;5072416;28;20998;-52
2023/04/29 02:10:33;;;;;;;1.83;1.17;;;10.40;99.90;;;;;;5072972;28;20478;-52
2023/04/29 02:13:01;;;;;;;1.93;1.40;;;10.50;99.90;;;;;;5072568;28;20509;-52
2023/04/29 02:15:28;;;;;;;2.23;2.00;;;10.50;99.90;;;;;;5072307;28;20455;-52
2023/04/29 02:17:55;;;;;;;2.70;1.63;;;10.50;99.90;;;;;;5072293;28;20479;-52
2023/04/29 02:20:22;;;;;;;1.63;1.27;;;10.40;99.90;;;;;;5073193;28;20489;-53
2023/04/29 02:22:50;;;;;;;1.30;1.03;;;10.30;99.90;;;;;;5072270;28;20494;-52
2023/04/29 02:25:17;;;;;;;1.90;1.03;;;10.30;99.90;;;;;;5072893;28;20505;-52
2023/04/29 02:27:44;;;;;;;1.57;1.23;;;10.30;99.90;;;;;;5072143;28;21003;-52
2023/04/29 02:30:12;;;;;;;1.30;1.17;;;10.30;99.90;;;;;;5072386;28;20465;-53
2023/04/29 02:32:39;;;;;;;2.80;2.03;;;10.30;99.90;;;;;;5072143;28;20462;-52
2023/04/29 02:35:07;;;;;;;1.63;1.53;;;10.30;99.90;;;;;;5072476;28;20538;-52
2023/04/29 02:37:34;;;;;;;7.23;1.87;;;10.10;99.90;;;;;;5072844;28;20442;-52
2023/04/29 02:40:03;;;;;;;2.23;2.00;;;10.10;99.90;;;;;;5072425;28;20513;-52
2023/04/29 02:42:30;;;;;;;1.63;1.47;;;10.00;99.90;;;;;;5072149;28;20527;-52
2023/04/29 02:44:57;;;;;;;1.90;1.60;;;9.90;99.90;;;;;;5072012;28;20547;-52
2023/04/29 02:47:26;;;;;;;2.30;1.87;;;10.00;99.90;;;;;;5071180;28;20959;-52
2023/04/29 02:49:52;;;;;;;2.20;1.13;;;10.10;99.90;;;;;;5072123;28;20535;-52
2023/04/29 02:52:19;;;;;;;1.40;1.20;;;10.20;99.90;;;;;;5072211;28;20508;-52
2023/04/29 02:54:46;;;;;;;1.57;1.00;;;10.30;99.90;;;;;;5072177;28;20504;-52
2023/04/29 02:57:13;;;;;;;3.80;1.40;;;10.30;99.90;;;;;;5071989;28;20470;-52
2023/04/29 02:59:40;;;;;;;1.53;1.23;;;10.30;99.90;;;;;;5071727;28;20443;-52
2023/04/29 03:02:07;;;;;;;1.40;0.80;;;10.30;99.90;;;;;;5071964;28;20474;-52
2023/04/29 03:04:35;;;;;;;1.30;1.00;;;10.30;99.90;;;;;;5071438;28;20542;-54
2023/04/29 03:07:03;;;;;;;1.87;1.27;;;10.30;99.90;;;;;;5072008;28;21012;-53
2023/04/29 03:09:30;;;;;;;1.80;1.30;;;10.40;99.90;;;;;;5070976;28;20493;-52
2023/04/29 03:11:57;;;;;;;2.33;1.20;;;10.30;99.90;;;;;;5071533;28;20470;-52
2023/04/29 03:14:24;;;;;;;1.03;0.80;;;10.10;99.90;;;;;;5070819;28;20485;-52
2023/04/29 03:16:51;;;;;;;1.30;0.50;;;10.00;99.90;;;;;;5071727;28;20890;-52
2023/04/29 03:19:18;;;;;;;1.87;0.60;;;10.00;99.90;;;;;;5071357;28;20495;-52
2023/04/29 03:21:46;;;;;;;1.20;0.70;;;10.00;99.90;;;;;;5071499;28;20489;-52
2023/04/29 03:24:13;;;;;;;1.00;0.67;;;9.90;99.90;;;;;;5070994;28;20823;-51
2023/04/29 03:26:41;;;;;;;1.00;0.50;;;9.90;99.90;;;;;;5071219;28;20533;-51
2023/04/29 03:29:08;;;;;;;1.83;1.00;;;9.90;99.90;;;;;;5071428;28;20558;-52
2023/04/29 03:31:35;;;;;;;1.67;1.00;;;10.10;99.90;;;;;;5071552;28;20498;-52
2023/04/29 03:34:03;;;;;;;2.40;1.27;;;10.10;99.90;;;;;;5071253;28;20481;-52
2023/04/29 03:36:29;;;;;;;2.30;2.10;;;10.10;99.90;;;;;;5071207;28;20473;-52
2023/04/29 03:38:58;;;;;;;1.77;1.53;;;10.00;99.90;;;;;;5070950;28;20446;-52
2023/04/29 03:41:25;;;;;;;1.60;0.97;;;9.90;99.90;;;;;;5071222;28;20486;-52
2023/04/29 03:43:53;;;;;;;1.50;0.80;;;10.00;99.90;;;;;;5071090;28;20529;-52
2023/04/29 03:46:20;;;;;;;2.60;1.20;;;10.00;99.90;;;;;;5070547;28;20944;-53
2023/04/29 03:48:47;;;;;;;1.67;1.00;;;10.00;99.90;;;;;;5070679;28;20475;-52
2023/04/29 03:51:14;;;;;;;1.20;0.80;;;10.00;99.90;;;;;;5070788;28;20536;-52
2023/04/29 03:53:41;;;;;;;2.07;1.47;;;10.00;99.90;;;;;;5070838;28;20550;-52
2023/04/29 03:56:10;;;;;;;5.07;2.83;;;10.00;99.90;;;;;;5071244;28;20449;-52
2023/04/29 03:58:36;;;;;;;2.57;1.67;;;9.70;99.90;;;;;;5071087;28;20446;-52
2023/04/29 04:01:03;;;;;;;3.33;1.87;;;9.80;99.90;;;;;;5070963;28;20532;-52
2023/04/29 04:03:31;;;;;;;3.90;2.40;;;9.90;99.90;;;;;;5070909;28;20466;-52
2023/04/29 04:05:58;;;;;;;1.93;1.40;;;9.90;99.90;;;;;;5070681;28;20489;-52
2023/04/29 04:08:25;;;;;;;3.50;1.50;;;9.90;99.90;;;;;;5070912;28;20533;-52
2023/04/29 04:10:52;;;;;;;3.43;1.77;;;9.70;99.90;;;;;;5071097;28;20449;-52
2023/04/29 04:13:20;;;;;;;2.33;1.83;;;9.70;99.90;;;;;;5070887;28;20490;-53
2023/04/29 04:15:50;;;;;;;2.80;2.60;;;9.90;99.90;;;;;;5070446;28;20534;-52
2023/04/29 04:18:17;;;;;;;2.60;2.17;;;9.90;99.90;;;;;;5070815;28;20443;-52
2023/04/29 04:20:44;;;;;;;2.80;2.50;;;9.90;99.90;;;;;;5076477;28;20477;-52
2023/04/29 04:23:11;;;;;;;3.03;2.73;;;9.70;99.90;;;;;;5076766;28;20468;-52
2023/04/29 04:25:38;;;;;;;3.57;3.23;;;9.70;99.90;;;;;;5077507;28;20529;-54
2023/04/29 04:28:05;;;;;;;3.70;2.80;;;9.70;99.90;;;;;;5076054;28;20738;-52
2023/04/29 04:30:36;;;;;;;3.57;3.27;;;9.80;99.90;;;;;;5075825;28;20477;-53
2023/04/29 04:33:02;;;;;;;30.23;24.33;;;9.90;99.90;;;;;;5075968;28;20465;-54
2023/04/29 04:35:30;;;;;;;8.13;5.43;;;10.00;99.90;;;;;;5075980;28;20453;-52
2023/04/29 04:37:57;;;;;;;35.73;25.03;;;10.10;99.90;;;;;;5076037;28;20822;-54
2023/04/29 04:40:24;;;;;;;6.73;4.70;;;10.20;99.90;;;;;;5076184;28;20515;-52
2023/04/29 04:42:51;;;;;;;3.50;3.20;;;10.20;99.90;;;;;;5076701;28;20544;-52
2023/04/29 04:45:18;;;;;;;2.00;1.73;;;10.20;99.90;;;;;;5076626;28;20475;-52
2023/04/29 04:47:46;;;;;;;3.53;2.37;;;10.20;99.90;;;;;;5076378;28;20883;-52
2023/04/29 04:50:13;;;;;;;2.70;2.50;;;10.30;99.90;;;;;;5077360;28;20565;-52
2023/04/29 04:52:40;;;;;;;3.03;2.83;;;10.20;99.90;;;;;;5077209;28;20544;-52
2023/04/29 04:55:08;;;;;;;4.00;3.07;;;10.20;99.90;;;;;;5077031;28;20450;-52
2023/04/29 04:57:35;;;;;;;2.87;2.67;;;10.20;99.90;;;;;;5076785;28;20534;-53
2023/04/29 05:00:03;;;;;;;4.67;3.63;;;10.20;99.90;;;;;;5077341;28;20529;-52
2023/04/29 05:02:29;;;;;;;3.03;2.73;;;10.30;99.90;;;;;;5077139;28;20520;-52
2023/04/29 05:04:58;;;;;;;2.57;2.30;;;10.30;99.90;;;;;;5077133;28;20443;-52
2023/04/29 05:07:25;;;;;;;2.47;2.00;;;10.20;99.90;;;;;;5077125;28;20452;-52
2023/04/29 05:09:52;;;;;;;2.37;2.17;;;10.20;99.90;;;;;;5077173;28;20481;-52
2023/04/29 05:12:18;;;;;;;3.03;2.40;;;10.30;99.90;;;;;;5076781;28;20557;-52
2023/04/29 05:14:45;;;;;;;3.53;3.23;;;10.30;99.90;;;;;;5077034;28;20529;-52
2023/04/29 05:17:12;;;;;;;4.27;3.30;;;10.40;99.90;;;;;;5077169;28;20453;-52
2023/04/29 05:19:39;;;;;;;3.40;2.83;;;10.40;99.90;;;;;;5077216;28;20469;-52
2023/04/29 05:22:08;;;;;;;3.37;3.07;;;10.30;99.90;;;;;;5076973;28;20522;-52
2023/04/29 05:24:34;;;;;;;6.47;3.50;;;10.20;99.90;;;;;;5076661;28;20449;-52
2023/04/29 05:27:03;;;;;;;3.80;3.50;;;10.20;99.90;;;;;;5077018;28;20447;-52
2023/04/29 05:29:30;;;;;;;4.60;3.70;;;10.30;99.90;;;;;;5076787;28;20474;-52
2023/04/29 05:31:58;;;;;;;3.90;3.60;;;10.30;99.90;;;;;;5073698;28;20537;-52
2023/04/29 05:34:25;;;;;;;4.23;3.77;;;10.30;99.90;;;;;;5073702;28;20481;-52
2023/04/29 05:36:52;;;;;;;3.80;3.50;;;10.30;99.90;;;;;;5073554;28;20449;-52
2023/04/29 05:39:20;;;;;;;7.00;4.20;;;10.30;99.90;;;;;;5073325;28;20537;-52
2023/04/29 05:41:47;;;;;;;4.40;3.57;;;10.30;99.90;;;;;;5073606;28;20514;-53
2023/04/29 05:44:14;;;;;;;3.37;2.87;;;10.30;99.90;;;;;;5073914;28;20488;-52
2023/04/29 05:46:40;;;;;;;3.40;3.10;;;10.40;99.90;;;;;;5073249;28;20534;-53
2023/04/29 05:49:07;;;;;;;2.60;2.40;;;10.50;99.90;;;;;;5072636;28;20523;-52
2023/04/29 05:51:34;;;;;;;2.67;2.40;;;10.60;99.90;;;;;;5073762;28;20468;-54
2023/04/29 05:54:01;;;;;;;3.23;2.93;;;10.70;99.90;;;;;;5073091;28;20538;-52
2023/04/29 05:56:31;;;;;;;3.43;3.13;;;10.80;99.90;;;;;;5073208;28;20530;-52
2023/04/29 05:58:57;;;;;;;4.57;3.90;;;10.90;99.90;;;;;;5073033;28;20531;-53
2023/04/29 06:01:24;;;;;;;3.07;2.60;;;10.90;99.90;;;;;;5073127;28;20529;-52
2023/04/29 06:03:51;;;;;;;3.23;2.93;;;10.90;99.90;;;;;;5072969;28;20864;-52
2023/04/29 06:06:18;;;;;;;34.63;26.47;;;10.90;99.90;;;;;;5073419;28;20528;-52
2023/04/29 06:08:45;;;;;;;11.10;8.80;;;11.00;99.90;;;;;;5072986;28;20625;-52
2023/04/29 06:11:13;;;;;;;3.13;2.80;;;11.00;99.90;;;;;;5073048;28;20487;-52
2023/04/29 06:13:41;;;;;;;3.07;2.57;;;11.00;99.90;;;;;;5072791;28;20495;-52
2023/04/29 06:16:09;;;;;;;2.23;1.93;;;11.00;99.90;;;;;;5072989;28;20525;-52
2023/04/29 06:18:36;;;;;;;3.87;2.30;;;11.00;99.90;;;;;;5071758;28;20456;-53
2023/04/29 06:21:04;;;;;;;2.70;2.43;;;11.00;99.90;;;;;;5062024;28;20456;-55
2023/04/29 06:23:31;;;;;;;1.97;1.87;;;11.00;99.90;;;;;;5058708;28;20455;-52
2023/04/29 06:25:58;;;;;;;2.30;2.10;;;11.10;99.90;;;;;;5069403;28;20440;-51
2023/04/29 06:28:25;;;;;;;2.33;1.63;;;11.00;99.90;;;;;;5071711;28;20942;-52
2023/04/29 06:30:54;;;;;;;2.57;1.73;;;11.00;99.90;;;;;;5072293;28;20540;-53
2023/04/29 06:33:20;;;;;;;2.30;2.10;;;11.00;99.90;;;;;;5069057;28;20499;-53
2023/04/29 06:35:47;;;;;;;2.37;2.17;;;11.10;99.90;;;;;;5072033;28;20531;-52
2023/04/29 06:38:14;;;;;;;4.10;2.80;;;11.10;99.90;;;;;;5071707;28;20946;-54
2023/04/29 06:40:41;;;;;;;3.10;2.43;;;11.20;99.90;;;;;;5071257;28;20515;-52
2023/04/29 06:43:08;;;;;;;2.67;2.47;;;11.30;99.90;;;;;;5070714;28;20495;-52
2023/04/29 06:45:35;;;;;;;2.60;2.40;;;11.30;99.90;;;;;;5070632;28;20475;-53
2023/04/29 06:48:03;;;;;;;3.13;1.90;;;11.40;99.90;;;;;;5070029;28;20798;-52
2023/04/29 06:50:30;;;;;;;1.70;1.60;;;11.30;99.90;;;;;;5070673;28;20493;-53
2023/04/29 06:52:57;;;;;;;2.10;1.73;;;11.30;99.90;;;;;;5070539;28;20503;-53
2023/04/29 06:55:24;;;;;;;2.10;1.90;;;11.40;99.90;;;;;;5070820;28;20474;-52
2023/04/29 06:57:51;;;;;;;1.77;1.50;;;11.50;99.90;;;;;;5070762;28;20534;-52
2023/04/29 07:00:19;;;;;;;2.10;1.90;;;11.60;99.90;;;;;;5070528;28;20522;-52
2023/04/29 07:02:46;;;;;;;2.80;1.93;;;11.80;99.90;;;;;;5070648;28;21047;-53
2023/04/29 07:05:15;;;;;;;1.30;1.10;;;11.90;99.90;;;;;;5070025;28;20475;-52
2023/04/29 07:07:42;;;;;;;1.00;0.87;;;11.70;99.90;;;;;;5067917;28;20482;-54
2023/04/29 07:10:09;;;;;;;2.13;1.00;;;11.80;99.90;;;;;;5070491;28;20522;-51
2023/04/29 07:12:37;;;;;;;1.67;1.00;;;11.80;99.90;;;;;;5070200;28;20483;-52
2023/04/29 07:15:04;;;;;;;1.60;1.00;;;11.70;99.90;;;;;;5071123;28;20447;-52
2023/04/29 07:17:31;;;;;;;1.30;1.10;;;11.70;99.90;;;;;;5071495;28;20439;-52
2023/04/29 07:19:58;;;;;;;1.20;0.80;;;11.70;99.90;;;;;;5070936;28;20479;-52
2023/04/29 07:22:26;;;;;;;6.17;1.00;;;11.70;99.90;;;;;;5070487;28;20523;-52
2023/04/29 07:24:54;;;;;;;1.50;1.03;;;11.80;99.90;;;;;;5070764;28;20487;-52
2023/04/29 07:27:21;;;;;;;1.20;0.80;;;11.80;99.90;;;;;;5068598;28;20523;-52
2023/04/29 07:29:48;;;;;;;1.10;0.63;;;11.80;99.90;;;;;;5071257;28;20557;-52
2023/04/29 07:32:16;;;;;;;3.73;1.20;;;11.90;99.90;;;;;;5071348;28;20546;-53
2023/04/29 07:34:43;;;;;;;7.20;5.83;;;11.90;99.90;;;;;;5070636;28;20530;-53
2023/04/29 07:37:10;;;;;;;4.87;3.30;;;11.90;99.90;;;;;;5070508;28;20483;-52
2023/04/29 07:39:38;;;;;;;3.30;1.47;;;11.90;99.90;;;;;;5071298;28;20471;-52
2023/04/29 07:42:05;;;;;;;1.60;1.10;;;12.20;99.90;;;;;;5071293;28;20840;-52
2023/04/29 07:44:32;;;;;;;2.23;1.40;;;12.30;99.90;;;;;;5070904;28;20543;-53
2023/04/29 07:46:59;;;;;;;3.00;1.63;;;12.40;99.90;;;;;;5070743;28;20527;-54
2023/04/29 07:49:26;;;;;;;1.70;0.80;;;12.50;99.90;;;;;;5065326;28;20548;-53
2023/04/29 07:51:53;;;;;;;1.87;1.30;;;12.30;99.90;;;;;;5067723;28;20539;-53
2023/04/29 07:54:21;;;;;;;2.37;1.00;;;12.40;99.90;;;;;;5067383;28;20548;-53
2023/04/29 07:56:49;;;;;;;1.13;0.90;;;12.50;99.90;;;;;;5067713;28;21083;-52
2023/04/29 07:59:16;;;;;;;1.10;0.80;;;12.40;99.90;;;;;;5067846;28;20510;-53
2023/04/29 08:01:43;;;;;;;2.60;0.80;;;12.50;99.90;;;;;;5067857;28;20813;-52
2023/04/29 08:04:10;;;;;;;2.83;0.90;;;12.50;99.90;;;;;;5067721;28;20476;-52
2023/04/29 08:06:37;;;;;;;1.60;0.90;;;12.50;99.90;;;;;;5067817;28;20449;-53
2023/04/29 08:09:04;;;;;;;0.90;0.60;;;12.60;99.90;;;;;;5067808;28;20527;-52
2023/04/29 08:11:31;;;;;;;1.50;0.70;;;12.80;99.90;;;;;;5067374;28;20781;-52
2023/04/29 08:13:59;;;;;;;1.67;1.23;;;12.90;99.90;;;;;;5067976;28;20523;-53
2023/04/29 08:16:26;;;;;;;1.40;0.70;;;12.90;99.90;;;;;;5067901;28;20476;-54
2023/04/29 08:18:54;;;;;;;2.00;0.80;;;12.90;99.90;;;;;;5065967;28;20926;-54
2023/04/29 08:21:21;;;;;;;1.40;0.73;;;12.90;99.90;;;;;;5069278;28;20443;-52
2023/04/29 08:23:48;;;;;;;1.70;0.90;;;13.00;99.90;;;;;;5060794;28;20548;-53
2023/04/29 08:26:15;;;;;;;1.10;0.60;;;13.30;99.90;;;;;;5063369;28;20476;-52
2023/04/29 08:28:42;;;;;;;2.60;0.50;;;13.50;99.90;;;;;;5066890;28;20472;-53
2023/04/29 08:31:17;;;;;;;1.00;0.60;;;13.70;99.90;;;;;;5067792;28;20561;-53
2023/04/29 08:33:44;;;;;;;1.57;0.77;;;13.80;99.90;;;;;;5067218;28;20460;-52
2023/04/29 08:36:10;;;;;;;1.43;0.80;;;13.80;99.90;;;;;;5068013;28;20463;-52
2023/04/29 08:38:37;;;;;;;1.53;0.70;;;13.80;99.90;;;;;;5067534;28;20449;-52
2023/04/29 08:41:07;;;;;;;1.00;0.60;;;13.70;99.90;;;;;;5067441;28;20448;-54
2023/04/29 08:43:36;;;;;;;2.03;0.60;;;13.60;99.90;;;;;;5068349;28;20471;-52
2023/04/29 08:46:03;;;;;;;1.10;0.70;;;13.70;99.90;;;;;;5067601;28;20928;-53
2023/04/29 08:48:33;;;;;;;1.13;0.60;;;13.80;99.90;;;;;;5068450;28;20433;-52
2023/04/29 08:51:01;;;;;;;1.50;0.90;;;14.10;99.90;;;;;;5069946;28;20481;-53
2023/04/29 08:53:28;;;;;;;1.20;0.60;;;14.20;99.90;;;;;;5069301;28;20478;-52
2023/04/29 08:55:55;;;;;;;1.10;0.50;;;14.20;99.90;;;;;;5070416;28;20532;-53
2023/04/29 08:58:25;;;;;;;0.93;0.40;;;14.40;99.90;;;;;;5070700;28;20436;-53
2023/04/29 09:00:52;;;;;;;1.00;0.50;;;14.40;99.90;;;;;;5070931;28;20475;-52
2023/04/29 09:03:24;;;;;;;0.97;0.47;;;14.70;99.90;;;;;;5069570;28;20504;-52
2023/04/29 09:05:55;;;;;;;1.73;0.60;;;14.60;99.90;;;;;;5069179;28;20539;-52
2023/04/29 09:08:23;;;;;;;1.10;0.80;;;14.70;99.90;;;;;;5073125;28;20539;-53
2023/04/29 09:10:51;;;;;;;1.40;0.60;;;14.70;99.90;;;;;;5072007;28;20480;-53
2023/04/29 09:13:25;;;;;;;1.03;0.60;;;14.70;99.90;;;;;;5072894;28;20539;-52
2023/04/29 09:15:52;;;;;;;1.10;0.70;;;14.80;99.90;;;;;;5072729;28;20440;-52
2023/04/29 09:18:43;;;;;;;1.30;0.70;;;14.80;99.90;;;;;;5072049;28;20535;-52
2023/04/29 09:21:16;;;;;;;1.00;0.50;;;14.90;99.90;;;;;;5079064;28;20769;-52
2023/04/29 09:23:43;;;;;;;2.17;0.57;;;14.90;99.90;;;;;;5072985;28;20472;-53
2023/04/29 09:26:10;;;;;;;1.80;0.53;;;15.10;99.90;;;;;;5073182;28;20943;-52
2023/04/29 09:28:39;;;;;;;1.03;0.47;;;15.10;99.90;;;;;;5073328;28;20535;-54
2023/04/29 09:31:07;;;;;;;1.03;0.53;;;15.30;99.90;;;;;;5073485;28;20472;-52
2023/04/29 09:33:50;;;;;;;2.93;0.70;;;15.40;99.90;;;;;;5073394;28;20521;-52
2023/04/29 09:36:36;;;;;;;1.67;0.60;;;15.70;99.90;;;;;;5073531;28;20939;-52
2023/04/29 09:39:04;;;;;;;0.90;0.43;;;15.80;99.90;;;;;;5073769;28;20742;-52
2023/04/29 09:41:31;;;;;;;1.20;0.60;;;15.80;99.90;;;;;;5073520;28;20456;-52
2023/04/29 09:44:04;;;;;;;1.10;0.50;;;15.70;99.90;;;;;;5072310;28;20484;-52
2023/04/29 09:46:33;;;;;;;1.47;0.97;;;15.70;99.90;;;;;;5072921;28;20437;-52
2023/04/29 09:49:00;;;;;;;1.20;0.90;;;15.80;99.90;;;;;;5072453;28;20441;-53
2023/04/29 09:51:31;;;;;;;1.33;1.00;;;15.80;99.90;;;;;;5073008;28;20559;-53
2023/04/29 09:53:58;;;;;;;1.40;1.00;;;16.00;99.90;;;;;;5073080;28;20939;-52
2023/04/29 09:56:27;;;;;;;1.00;0.57;;;16.20;99.90;;;;;;5073393;28;20536;-52
2023/04/29 09:58:56;;;;;;;1.20;0.70;;;16.00;99.90;;;;;;5073321;28;20470;-53
2023/04/29 10:01:25;;;;;;;1.20;0.90;;;16.20;99.90;;;;;;5073012;28;20859;-51
2023/04/29 10:03:54;;;;;;;1.10;0.87;;;16.40;99.90;;;;;;5072327;28;20890;-52
2023/04/29 10:06:22;;;;;;;1.20;0.60;;;16.50;99.90;;;;;;5071661;28;20489;-51
2023/04/29 10:08:51;;;;;;;1.40;1.07;;;16.30;99.90;;;;;;5071998;28;20450;-51
2023/04/29 10:11:18;;;;;;;1.97;0.83;;;16.20;99.90;;;;;;5072501;28;20512;-50
2023/04/29 10:13:45;;;;;;;1.67;1.07;;;16.50;99.90;;;;;;5072387;28;20453;-51
2023/04/29 10:16:23;;;;;;;1.30;0.83;;;16.40;99.90;;;;;;5072431;28;20473;-50
2023/04/29 10:18:54;;;;;;;1.40;0.70;;;16.40;99.90;;;;;;5072359;28;20533;-50
2023/04/29 10:21:23;;;;;;;1.07;0.60;;;16.20;99.90;;;;;;5072885;28;20524;-50
2023/04/29 10:23:52;;;;;;;1.30;0.60;;;16.30;99.90;;;;;;5072837;28;20533;-52
2023/04/29 10:26:21;;;;;;;1.70;0.70;;;16.40;99.90;;;;;;5072831;28;21019;-51
2023/04/29 10:28:50;;;;;;;1.93;0.73;;;16.40;99.90;;;;;;5072322;28;20445;-53
2023/04/29 10:31:18;;;;;;;1.20;1.00;;;16.40;99.90;;;;;;5072365;28;20517;-52
2023/04/29 10:33:46;;;;;;;1.23;0.73;;;16.30;99.90;;;;;;5072177;28;20468;-50
2023/04/29 10:36:14;;;;;;;1.13;0.63;;;16.20;99.90;;;;;;5072570;28;20514;-50
2023/04/29 10:38:44;;;;;;;1.70;0.60;;;16.20;99.90;;;;;;5072575;28;20445;-51
2023/04/29 10:41:24;;;;;;;9.53;5.23;;;16.30;99.90;;;;;;5072488;28;20502;-51
2023/04/29 10:43:51;;;;;;;1.40;0.90;;;16.30;99.90;;;;;;5071880;28;20943;-51
2023/04/29 10:46:21;;;;;;;1.20;0.77;;;16.40;99.90;;;;;;5071946;28;20536;-51
2023/04/29 10:48:49;;;;;;;1.53;0.70;;;16.50;99.90;;;;;;5071790;28;20468;-51
2023/04/29 10:51:31;;;;;;;1.20;0.70;;;16.60;99.90;;;;;;5071912;28;20480;-50
2023/04/29 10:54:03;;;;;;;2.20;0.90;;;16.90;99.90;;;;;;5072196;28;20531;-50
2023/04/29 10:56:54;;;;;;;1.10;0.73;;;17.00;99.90;;;;;;5072469;28;20476;-52
2023/04/29 10:59:42;;;;;;;1.10;0.70;;;17.10;99.90;;;;;;5068423;28;20822;-52
2023/04/29 11:02:10;;;;;;;1.20;0.63;;;17.00;99.90;;;;;;5072118;28;20540;-51
2023/04/29 11:05:16;;;;;;;1.90;0.90;;;17.30;99.90;;;;;;5071944;28;20464;-51
2023/04/29 11:07:46;;;;;;;2.80;0.83;;;17.50;99.90;;;;;;5071896;28;20441;-51
2023/04/29 11:10:13;;;;;;;3.43;2.00;;;17.10;99.90;;;;;;5071964;28;20448;-51
2023/04/29 11:12:41;;;;;;;1.83;0.90;;;17.40;99.90;;;;;;5071774;28;20850;-52
2023/04/29 11:15:10;;;;;;;1.87;0.77;;;17.60;99.90;;;;;;5071860;28;20536;-51
2023/04/29 11:17:37;;;;;;;1.00;0.60;;;17.50;99.90;;;;;;5071827;28;20488;-51
2023/04/29 11:20:09;;;;;;;1.03;0.60;;;17.70;99.90;;;;;;5071241;28;21123;-50
2023/04/29 11:22:36;;;;;;;1.47;1.00;;;17.80;99.90;;;;;;5071399;28;21032;-51
2023/04/29 11:25:06;;;;;;;1.30;0.60;;;17.70;99.90;;;;;;5071319;28;20534;-51
2023/04/29 11:27:34;;;;;;;1.43;0.77;;;18.10;99.90;;;;;;5072536;28;21028;-52
2023/04/29 11:30:05;;;;;;;1.53;0.70;;;18.00;99.90;;;;;;5070661;28;20441;-51
2023/04/29 11:32:33;;;;;;;1.33;0.70;;;17.80;99.90;;;;;;5070036;28;21023;-51
2023/04/29 11:35:11;;;;;;;1.30;0.87;;;17.80;99.90;;;;;;5070300;28;20905;-51
2023/04/29 11:37:38;;;;;;;1.30;0.60;;;17.80;99.90;;;;;;5070989;28;20453;-51
2023/04/29 11:40:07;;;;;;;2.07;0.83;;;18.00;99.90;;;;;;5071397;28;20525;-52
2023/04/29 11:42:35;;;;;;;1.10;0.60;;;18.10;99.90;;;;;;5071143;28;20463;-51
2023/04/29 11:45:03;;;;;;;1.10;0.70;;;17.90;99.90;;;;;;5070755;28;20446;-52
2023/04/29 11:47:31;;;;;;;1.50;0.90;;;17.90;99.90;;;;;;5070353;28;20447;-51
2023/04/29 11:50:06;;;;;;;1.73;0.60;;;18.00;99.90;;;;;;5071662;28;20531;-51
2023/04/29 11:52:35;;;;;;;1.40;0.80;;;18.10;99.90;;;;;;5070891;28;20491;-51
2023/04/29 11:55:02;;;;;;;1.50;0.70;;;18.20;99.90;;;;;;5070057;28;20458;-51
2023/04/29 11:57:29;;;;;;;2.07;1.00;;;18.20;99.90;;;;;;5064446;28;20521;-51
2023/04/29 11:59:57;;;;;;;2.20;0.70;;;18.10;99.90;;;;;;5061031;28;20457;-51
2023/04/29 12:02:31;;;;;;;1.30;0.80;;;18.10;99.90;;;;;;5069934;28;20560;-52
2023/04/29 12:04:59;;;;;;;2.53;0.90;;;18.00;99.90;;;;;;5070340;28;20438;-50
2023/04/29 12:07:26;;;;;;;1.27;0.60;;;18.00;99.90;;;;;;5070766;28;20442;-51
2023/04/29 12:09:56;;;;;;;1.00;0.50;;;18.20;99.90;;;;;;5070881;28;20976;-51
2023/04/29 12:12:23;;;;;;;1.07;0.57;;;18.00;99.90;;;;;;5070055;28;20892;-52
2023/04/29 12:14:50;;;;;;;1.00;0.57;;;18.20;99.90;;;;;;5072820;28;20533;-51
2023/04/29 12:17:17;;;;;;;3.10;0.90;;;18.00;99.90;;;;;;5069966;28;20880;-52
2023/04/29 12:19:47;;;;;;;1.37;0.70;;;17.70;99.90;;;;;;5069975;28;20472;-53
2023/04/29 12:22:14;;;;;;;1.70;0.70;;;17.70;99.90;;;;;;5070100;28;21002;-53
2023/04/29 12:24:41;;;;;;;2.03;1.00;;;18.00;99.90;;;;;;5069018;28;20450;-50
2023/04/29 12:27:09;;;;;;;1.20;0.77;;;17.90;99.90;;;;;;5071033;28;20438;-52
2023/04/29 12:29:37;;;;;;;1.83;0.70;;;17.80;99.90;;;;;;5070755;28;20965;-51
2023/04/29 12:32:04;;;;;;;1.03;0.63;;;17.60;99.90;;;;;;5071000;28;20851;-51
2023/04/29 12:34:32;;;;;;;1.17;0.90;;;17.80;99.90;;;;;;5069132;28;20890;-51
2023/04/29 12:37:01;;;;;;;1.70;0.57;;;17.70;99.90;;;;;;5069483;28;20531;-52
2023/04/29 12:39:30;;;;;;;1.67;0.60;;;17.30;99.90;;;;;;5069316;28;20681;-52
2023/04/29 12:41:59;;;;;;;1.30;0.70;;;17.30;99.90;;;;;;5073219;28;20547;-51
2023/04/29 12:44:26;;;;;;;1.10;0.60;;;17.30;99.90;;;;;;5073894;28;20441;-51
2023/04/29 12:46:54;;;;;;;1.87;0.77;;;17.40;99.90;;;;;;5073266;28;20485;-52
2023/04/29 12:49:23;;;;;;;1.60;0.67;;;17.30;99.90;;;;;;5073105;28;20453;-53
2023/04/29 12:51:50;;;;;;;1.00;0.50;;;17.50;99.90;;;;;;5074003;28;20563;-52
2023/04/29 12:54:19;;;;;;;1.47;0.70;;;17.60;99.90;;;;;;5074008;28;21036;-51